| time (UTC) | temp C | wind direction | speed KPH | gust KPH | rain 1hr cm | rain 24hr cm | rain mn cm | humidity % | barometer mb |
| 20260508105619 | 17 | 42 | 9.7 | 17.7 | 0.00 | 0.00 | 0.00 | 65 | |
| 20260508105117 | 17 | 28 | 9.7 | 17.7 | 0.00 | 0.00 | 0.00 | 65 | |
| 20260508104614 | 17 | 78 | 8.0 | 24.1 | 0.00 | 0.00 | 0.00 | 65 | |
| 20260508104111 | 17 | 41 | 9.7 | 22.5 | 0.00 | 0.00 | 0.00 | 65 | |
| 20260508103608 | 18 | 60 | 6.4 | 22.5 | 0.00 | 0.00 | 0.00 | 65 | |
| 20260508103105 | 18 | 118 | 8.0 | 22.5 | 0.00 | 0.00 | 0.00 | 65 | |
| 20260508102603 | 18 | 44 | 8.0 | 20.9 | 0.00 | 0.00 | 0.00 | 65 | |
| 20260508102100 | 18 | 52 | 6.4 | 12.9 | 0.00 | 0.00 | 0.00 | 66 | |
| 20260508101558 | 18 | 340 | 8.0 | 17.7 | 0.00 | 0.00 | 0.00 | 65 | |
| 20260508101054 | 19 | 353 | 14.5 | 17.7 | 0.00 | 0.00 | 0.00 | 65 | |
| 20260508100553 | 19 | 82 | 9.7 | 24.1 | 0.00 | 0.00 | 0.00 | 64 | |
| 20260508100049 | 19 | 65 | 11.3 | 16.1 | 0.00 | 0.00 | 0.00 | 65 | |
| 20260508095546 | 20 | 5 | 11.3 | 16.1 | 0.00 | 0.00 | 0.00 | 65 | |
| 20260508095043 | 20 | 33 | 8.0 | 20.9 | 0.00 | 0.00 | 0.00 | 64 | |
| 20260508094540 | 20 | 75 | 8.0 | 16.1 | 0.00 | 0.00 | 0.00 | 63 | |
| 20260508094037 | 21 | 355 | 6.4 | 22.5 | 0.00 | 0.00 | 0.00 | 61 | |
| 20260508093534 | 22 | 33 | 4.8 | 11.3 | 0.00 | 0.00 | 0.00 | 52 | |
| 20260508093032 | 22 | 9 | 9.7 | 11.3 | 0.00 | 0.00 | 0.00 | 50 | |
| 20260508092529 | 22 | 344 | 12.9 | 20.9 | 0.00 | 0.00 | 0.00 | 48 | |
| 20260508092028 | 22 | 351 | 16.1 | 29.0 | 0.00 | 0.00 | 0.00 | 48 | |
| 20260508091524 | 23 | 359 | 16.1 | 20.9 | 0.00 | 0.00 | 0.00 | 47 | |
| 20260508091021 | 23 | 1 | 16.1 | 27.4 | 0.00 | 0.00 | 0.00 | 47 | |
| 20260508090520 | 23 | 3 | 17.7 | 24.1 | 0.00 | 0.00 | 0.00 | 46 | |
| 20260508090016 | 23 | 5 | 19.3 | 25.7 | 0.00 | 0.00 | 0.00 | 46 | |
| 20260508085512 | 23 | 2 | 22.5 | 33.8 | 0.00 | 0.00 | 0.00 | 45 | |
| 20260508085009 | 24 | 342 | 20.9 | 25.7 | 0.00 | 0.00 | 0.00 | 45 | |
| 20260508084506 | 24 | 1 | 25.7 | 37.0 | 0.00 | 0.00 | 0.00 | 44 | |
| 20260508084004 | 24 | 20 | 22.5 | 38.6 | 0.00 | 0.00 | 0.00 | 44 | |
| 20260508083500 | 24 | 7 | 24.1 | 37.0 | 0.00 | 0.00 | 0.00 | 44 | |
| 20260508082956 | 24 | 356 | 24.1 | 35.4 | 0.00 | 0.00 | 0.00 | 43 | |
| 20260508082453 | 24 | 3 | 19.3 | 27.4 | 0.00 | 0.00 | 0.00 | 43 | |
| 20260508081951 | 24 | 340 | 17.7 | 33.8 | 0.00 | 0.00 | 0.00 | 41 | |
| 20260508081448 | 24 | 327 | 17.7 | 27.4 | 0.00 | 0.00 | 0.00 | 43 | |
| 20260508080943 | 24 | 48 | 11.3 | 16.1 | 0.00 | 0.00 | 0.00 | 44 | |
| 20260508080442 | 24 | 25 | 17.7 | 20.9 | 0.00 | 0.00 | 0.00 | 43 | |
| 20260508075938 | 23 | 344 | 17.7 | 22.5 | 0.00 | 0.00 | 0.00 | 43 | |
| 20260508075436 | 24 | 13 | 14.5 | 16.1 | 0.00 | 0.00 | 0.00 | 44 | |
| 20260508074933 | 24 | 353 | 17.7 | 24.1 | 0.00 | 0.00 | 0.00 | 43 | |
| 20260508074430 | 24 | 329 | 20.9 | 30.6 | 0.00 | 0.00 | 0.00 | 43 | |
| 20260508073927 | 24 | 1 | 12.9 | 22.5 | 0.00 | 0.00 | 0.00 | 45 | |
| 20260508073425 | 24 | 6 | 17.7 | 24.1 | 0.00 | 0.00 | 0.00 | 45 | |
| 20260508072922 | 24 | 10 | 14.5 | 17.7 | 0.00 | 0.00 | 0.00 | 47 | |
| 20260508072418 | 24 | 357 | 14.5 | 17.7 | 0.00 | 0.00 | 0.00 | 47 | |
| 20260508071915 | 24 | 350 | 11.3 | 20.9 | 0.00 | 0.00 | 0.00 | 47 | |
| 20260508071413 | 24 | 350 | 6.4 | 11.3 | 0.00 | 0.00 | 0.00 | 52 | |
| 20260508070911 | 24 | 306 | 1.6 | 11.3 | 0.00 | 0.00 | 0.00 | 54 | |
| 20260508070408 | 24 | 339 | 9.7 | 22.5 | 0.00 | 0.00 | 0.00 | 53 | |
| 20260508065906 | 24 | 3 | 6.4 | 11.3 | 0.00 | 0.00 | 0.00 | 58 | |
| 20260508065404 | 24 | 106 | 1.6 | 3.2 | 0.00 | 0.00 | 0.00 | 59 | |
| 20260508064902 | 23 | 15 | 3.2 | 9.7 | 0.00 | 0.00 | 0.00 | 58 | |
| 20260508064359 | 23 | 324 | 9.7 | 14.5 | 0.00 | 0.00 | 0.00 | 57 | |
| 20260508063857 | 23 | 63 | 3.2 | 4.8 | 0.00 | 0.00 | 0.00 | 64 | |
| 20260508063354 | 23 | 118 | 0.0 | 0.0 | 0.00 | 0.00 | 0.00 | 68 | |
| 20260508062851 | 23 | 106 | 0.0 | 0.0 | 0.00 | 0.00 | 0.00 | 69 | |
| 20260508062349 | 23 | 100 | 1.6 | 3.2 | 0.00 | 0.00 | 0.00 | 68 | |
| 20260508061846 | 23 | 113 | 0.0 | 3.2 | 0.00 | 0.00 | 0.00 | 68 | |
| 20260508061343 | 23 | 105 | 1.6 | 3.2 | 0.00 | 0.00 | 0.00 | 68 | |
| 20260508060839 | 23 | 131 | 0.0 | 1.6 | 0.00 | 0.00 | 0.00 | 70 | |
| 20260508060337 | 23 | 51 | 3.2 | 11.3 | 0.00 | 0.00 | 0.00 | 69 | |
| 20260508055832 | 23 | 89 | 1.6 | 1.6 | 0.00 | 0.00 | 0.00 | 69 | |
| 20260508055330 | 23 | 150 | 1.6 | 3.2 | 0.00 | 0.00 | 0.00 | 69 | |
| 20260508054826 | 23 | 110 | 1.6 | 4.8 | 0.00 | 0.00 | 0.00 | 68 | |
| 20260508054324 | 23 | 105 | 0.0 | 1.6 | 0.00 | 0.00 | 0.00 | 70 | |
| 20260508053820 | 23 | 104 | 0.0 | 1.6 | 0.00 | 0.00 | 0.00 | 72 | |
| 20260508053318 | 23 | 114 | 0.0 | 0.0 | 0.00 | 0.00 | 0.00 | 72 | |
| 20260508052815 | 23 | 120 | 0.0 | 3.2 | 0.00 | 0.00 | 0.00 | 72 | |
| 20260508052312 | 23 | 137 | 1.6 | 3.2 | 0.00 | 0.00 | 0.00 | 71 | |
| 20260508051808 | 23 | 136 | 3.2 | 3.2 | 0.00 | 0.00 | 0.00 | 71 | |
| 20260508051303 | 22 | 136 | 0.0 | 1.6 | 0.00 | 0.00 | 0.00 | 71 | |
| 20260508050800 | 22 | 136 | 3.2 | 4.8 | 0.00 | 0.00 | 0.00 | 72 | |
| 20260508050258 | 22 | 159 | 1.6 | 3.2 | 0.00 | 0.00 | 0.00 | 72 | |
| 20260508045753 | 22 | 123 | 0.0 | 1.6 | 0.00 | 0.00 | 0.00 | 73 | |
| 20260508045251 | 22 | 126 | 0.0 | 3.2 | 0.00 | 0.00 | 0.00 | 72 | |
| 20260508044749 | 22 | 113 | 0.0 | 4.8 | 0.00 | 0.00 | 0.00 | 72 | |
| 20260508044245 | 22 | 142 | 3.2 | 3.2 | 0.00 | 0.00 | 0.00 | 72 | |
| 20260508043741 | 22 | 124 | 3.2 | 6.4 | 0.00 | 0.00 | 0.00 | 73 | |
| 20260508043239 | 22 | 138 | 6.4 | 6.4 | 0.00 | 0.00 | 0.00 | 72 | |
| 20260508042735 | 22 | 161 | 4.8 | 6.4 | 0.00 | 0.00 | 0.00 | 73 | |
| 20260508042233 | 22 | 144 | 3.2 | 4.8 | 0.00 | 0.00 | 0.00 | 72 | |
| 20260508041729 | 23 | 135 | 4.8 | 9.7 | 0.00 | 0.00 | 0.00 | 71 | |
| 20260508041226 | 23 | 153 | 3.2 | 4.8 | 0.00 | 0.00 | 0.00 | 72 | |
| 20260508040722 | 23 | 133 | 3.2 | 6.4 | 0.00 | 0.00 | 0.00 | 72 | |
| 20260508040220 | 23 | 127 | 3.2 | 6.4 | 0.00 | 0.00 | 0.00 | 72 | |
| 20260508035717 | 23 | 179 | 6.4 | 6.4 | 0.00 | 0.00 | 0.00 | 72 | |
| 20260508035214 | 23 | 127 | 4.8 | 6.4 | 0.00 | 0.00 | 0.00 | 71 | |
| 20260508034711 | 23 | 106 | 3.2 | 3.2 | 0.00 | 0.00 | 0.00 | 71 | |
| 20260508034208 | 23 | 123 | 0.0 | 3.2 | 0.00 | 0.00 | 0.00 | 72 | |
| 20260508033705 | 23 | 170 | 6.4 | 9.7 | 0.00 | 0.00 | 0.00 | 72 | |
| 20260508033204 | 23 | 183 | 3.2 | 6.4 | 0.00 | 0.00 | 0.00 | 73 | |
| 20260508032700 | 23 | 107 | 3.2 | 9.7 | 0.00 | 0.00 | 0.00 | 73 | |
| 20260508032157 | 23 | 102 | 1.6 | 4.8 | 0.00 | 0.00 | 0.00 | 74 | |
| 20260508031654 | 23 | 133 | 4.8 | 6.4 | 0.00 | 0.00 | 0.00 | 72 | |
| 20260508031150 | 23 | 143 | 3.2 | 6.4 | 0.00 | 0.00 | 0.00 | 73 | |
| 20260508030647 | 23 | 152 | 3.2 | 4.8 | 0.00 | 0.00 | 0.00 | 75 | |
| 20260508030145 | 23 | 113 | 1.6 | 9.7 | 0.00 | 0.00 | 0.00 | 74 | |
| 20260508025641 | 23 | 84 | 3.2 | 9.7 | 0.00 | 0.00 | 0.00 | 73 | |
| 20260508025138 | 23 | 46 | 1.6 | 4.8 | 0.00 | 0.00 | 0.00 | 74 | |
| 20260508024633 | 23 | 163 | 3.2 | 6.4 | 0.00 | 0.00 | 0.00 | 74 | |
| 20260508024131 | 23 | 73 | 4.8 | 4.8 | 0.00 | 0.00 | 0.00 | 75 | |
| 20260508023627 | 22 | 181 | 6.4 | 11.3 | 0.00 | 0.00 | 0.00 | 75 | |
| 20260508023125 | 22 | 142 | 6.4 | 9.7 | 0.00 | 0.00 | 0.00 | 75 | |
| 20260508022620 | 22 | 113 | 9.7 | 11.3 | 0.00 | 0.00 | 0.00 | 75 | |
| 20260508022118 | 22 | 153 | 9.7 | 14.5 | 0.00 | 0.00 | 0.00 | 75 | |
| 20260508021614 | 22 | 112 | 6.4 | 12.9 | 0.00 | 0.00 | 0.00 | 74 | |
| 20260508021110 | 23 | 87 | 6.4 | 6.4 | 0.00 | 0.00 | 0.00 | 73 | |
| 20260508020608 | 23 | 109 | 1.6 | 3.2 | 0.00 | 0.00 | 0.00 | 71 | |
| 20260508020105 | 23 | 107 | 0.0 | 3.2 | 0.00 | 0.00 | 0.00 | 73 | |
| 20260508015602 | 23 | 131 | 3.2 | 6.4 | 0.00 | 0.00 | 0.00 | 74 | |
| 20260508015059 | 22 | 145 | 1.6 | 3.2 | 0.00 | 0.00 | 0.00 | 74 | |
| 20260508014555 | 22 | 146 | 1.6 | 3.2 | 0.00 | 0.00 | 0.00 | 74 | |
| 20260508014052 | 23 | 153 | 1.6 | 4.8 | 0.00 | 0.00 | 0.00 | 73 | |
| 20260508013548 | 23 | 115 | 1.6 | 1.6 | 0.00 | 0.00 | 0.00 | 74 | |
| 20260508013045 | 23 | 113 | 0.0 | 1.6 | 0.00 | 0.00 | 0.00 | 74 | |
| 20260508012542 | 22 | 72 | 1.6 | 3.2 | 0.00 | 0.00 | 0.00 | 75 | |
| 20260508012040 | 22 | 170 | 3.2 | 3.2 | 0.00 | 0.00 | 0.00 | 75 | |
| 20260508011538 | 22 | 125 | 0.0 | 3.2 | 0.00 | 0.00 | 0.00 | 76 | |
| 20260508011035 | 22 | 134 | 3.2 | 4.8 | 0.00 | 0.00 | 0.00 | 75 | |
| 20260508010531 | 22 | 158 | 1.6 | 6.4 | 0.00 | 0.00 | 0.00 | 75 | |
| 20260508010029 | 22 | 207 | 3.2 | 4.8 | 0.00 | 0.00 | 0.00 | 76 | |
| 20260508005525 | 22 | 136 | 1.6 | 3.2 | 0.00 | 0.00 | 0.00 | 77 | |
| 20260508005022 | 21 | 136 | 1.6 | 3.2 | 0.00 | 0.00 | 0.00 | 79 | |
| 20260508004518 | 22 | 215 | 4.8 | 4.8 | 0.00 | 0.00 | 0.00 | 77 | |
| 20260508004015 | 21 | 129 | 1.6 | 3.2 | 0.00 | 0.00 | 0.00 | 79 | |
| 20260508003512 | 21 | 111 | 1.6 | 3.2 | 0.00 | 0.00 | 0.00 | 79 | |
| 20260508003009 | 21 | 95 | 3.2 | 3.2 | 0.00 | 0.00 | 0.00 | 79 | |
| 20260508002505 | 21 | 129 | 1.6 | 1.6 | 0.00 | 0.00 | 0.00 | 79 | |
| 20260508002002 | 21 | 136 | 0.0 | 1.6 | 0.00 | 0.00 | 0.00 | 81 | |
| 20260508001458 | 21 | 141 | 3.2 | 4.8 | 0.00 | 0.00 | 0.00 | 81 | |
| 20260508000955 | 20 | 73 | 1.6 | 3.2 | 0.00 | 0.00 | 0.00 | 82 | |
| 20260508000450 | 20 | 125 | 0.0 | 3.2 | 0.00 | 0.00 | 0.00 | 82 | |
| 20260507235948 | 20 | 70 | 1.6 | 3.2 | 0.00 | 0.00 | 0.00 | 83 | |
| 20260507235444 | 20 | 123 | 0.0 | 1.6 | 0.00 | 0.00 | 0.00 | 85 | |
| 20260507234942 | 20 | 47 | 4.8 | 4.8 | 0.00 | 0.00 | 0.00 | 85 | |
| 20260507234438 | 20 | 96 | 1.6 | 4.8 | 0.00 | 0.00 | 0.00 | 84 | |
| 20260507233935 | 20 | 31 | 3.2 | 3.2 | 0.00 | 0.00 | 0.00 | 84 | |
| 20260507233432 | 20 | 84 | 1.6 | 4.8 | 0.00 | 0.00 | 0.00 | 84 | |
| 20260507232930 | 20 | 123 | 0.0 | 1.6 | 0.00 | 0.00 | 0.00 | 86 | |
| 20260507232426 | 19 | 9 | 4.8 | 6.4 | 0.00 | 0.00 | 0.00 | 87 | |
| 20260507231924 | 19 | 83 | 1.6 | 4.8 | 0.00 | 0.00 | 0.00 | 86 | |
| 20260507231420 | 19 | 112 | 0.0 | 1.6 | 0.00 | 0.00 | 0.00 | 86 | |
| 20260507230917 | 19 | 105 | 0.0 | 1.6 | 0.00 | 0.00 | 0.00 | 86 | |
| 20260507230415 | 19 | 77 | 3.2 | 4.8 | 0.00 | 0.00 | 0.00 | 86 | |
| 20260507225914 | 20 | 123 | 0.0 | 1.6 | 0.00 | 0.00 | 0.00 | 85 | |
| 20260507225411 | 20 | 106 | 0.0 | 1.6 | 0.00 | 0.00 | 0.00 | 85 | |
| 20260507224907 | 20 | 124 | 0.0 | 1.6 | 0.00 | 0.00 | 0.00 | 86 | |
| 20260507224403 | 19 | 116 | 0.0 | 0.0 | 0.00 | 0.00 | 0.00 | 87 | |
| 20260507223900 | 19 | 86 | 1.6 | 3.2 | 0.00 | 0.00 | 0.00 | 87 | |
| 20260507223356 | 19 | 108 | 0.0 | 1.6 | 0.00 | 0.00 | 0.00 | 88 | |
| 20260507222853 | 19 | 112 | 0.0 | 1.6 | 0.00 | 0.00 | 0.00 | 88 | |
| 20260507222349 | 19 | 115 | 0.0 | 1.6 | 0.00 | 0.00 | 0.00 | 88 | |
| 20260507221846 | 19 | 252 | 0.0 | 1.6 | 0.00 | 0.00 | 0.00 | 88 | |
| 20260507221343 | 19 | 105 | 1.6 | 4.8 | 0.00 | 0.00 | 0.00 | 87 | |
| 20260507220839 | 19 | 49 | 1.6 | 1.6 | 0.00 | 0.00 | 0.00 | 87 | |
| 20260507220337 | 19 | 105 | 0.0 | 1.6 | 0.00 | 0.00 | 0.00 | 87 | |
| 20260507215833 | 19 | 348 | 3.2 | 4.8 | 0.00 | 0.00 | 0.00 | 87 | |
| 20260507215330 | 19 | 126 | 0.0 | 0.0 | 0.00 | 0.00 | 0.00 | 87 | |
| 20260507214827 | 19 | 138 | 0.0 | 1.6 | 0.00 | 0.00 | 0.00 | 88 | |
| 20260507214326 | 19 | 144 | 1.6 | 1.6 | 0.00 | 0.00 | 0.00 | 88 | |
| 20260507213826 | 18 | 107 | 0.0 | 1.6 | 0.00 | 0.00 | 0.00 | 88 | |
| 20260507213323 | 18 | 33 | 4.8 | 6.4 | 0.00 | 0.00 | 0.00 | 89 | |
| 20260507212820 | 18 | 138 | 1.6 | 3.2 | 0.00 | 0.00 | 0.00 | 89 | |
| 20260507212316 | 18 | 103 | 0.0 | 1.6 | 0.00 | 0.00 | 0.00 | 90 | |
| 20260507211812 | 18 | 112 | 0.0 | 0.0 | 0.00 | 0.00 | 0.00 | 90 | |
| 20260507211309 | 18 | 77 | 1.6 | 4.8 | 0.00 | 0.00 | 0.00 | 90 | |
| 20260507210806 | 18 | 74 | 1.6 | 3.2 | 0.00 | 0.00 | 0.00 | 91 | |
| 20260507210303 | 18 | 109 | 0.0 | 0.0 | 0.00 | 0.00 | 0.00 | 91 | |
| 20260507205759 | 18 | 108 | 0.0 | 1.6 | 0.00 | 0.00 | 0.00 | 91 | |
| 20260507205256 | 18 | 110 | 0.0 | 0.0 | 0.00 | 0.00 | 0.00 | 91 | |
| 20260507204752 | 17 | 86 | 1.6 | 1.6 | 0.00 | 0.00 | 0.00 | 91 | |
| 20260507204250 | 17 | 98 | 0.0 | 1.6 | 0.00 | 0.00 | 0.00 | 91 | |
| 20260507203748 | 17 | 90 | 1.6 | 3.2 | 0.00 | 0.00 | 0.00 | 91 | |
| 20260507203245 | 17 | 82 | 1.6 | 3.2 | 0.00 | 0.00 | 0.00 | 91 | |
| 20260507202741 | 17 | 51 | 3.2 | 3.2 | 0.00 | 0.00 | 0.00 | 91 | |
| 20260507202237 | 17 | 242 | 6.4 | 9.7 | 0.00 | 0.00 | 0.00 | 91 | |
| 20260507201732 | 17 | 153 | 4.8 | 6.4 | 0.00 | 0.00 | 0.00 | 91 | |
| 20260507201229 | 17 | 251 | 4.8 | 6.4 | 0.00 | 0.00 | 0.00 | 91 | |
| 20260507200726 | 17 | 189 | 4.8 | 4.8 | 0.00 | 0.00 | 0.00 | 91 | |
| 20260507200222 | 17 | 166 | 3.2 | 3.2 | 0.00 | 0.00 | 0.00 | 91 | |
| 20260507195718 | 17 | 124 | 0.0 | 0.0 | 0.00 | 0.00 | 0.00 | 91 | |
| 20260507195215 | 17 | 139 | 0.0 | 1.6 | 0.00 | 0.00 | 0.00 | 91 | |
| 20260507194712 | 17 | 103 | 0.0 | 3.2 | 0.00 | 0.00 | 0.00 | 91 | |
| 20260507194209 | 17 | 102 | 0.0 | 3.2 | 0.00 | 0.00 | 0.00 | 91 | |
| 20260507193705 | 18 | 94 | 0.0 | 4.8 | 0.00 | 0.00 | 0.00 | 91 | |
| 20260507193202 | 18 | 53 | 3.2 | 9.7 | 0.00 | 0.00 | 0.00 | 91 | |
| 20260507192658 | 18 | 358 | 9.7 | 11.3 | 0.00 | 0.00 | 0.00 | 90 | |
| 20260507192155 | 18 | 330 | 8.0 | 9.7 | 0.00 | 0.00 | 0.00 | 90 | |
| 20260507191651 | 18 | 359 | 6.4 | 9.7 | 0.00 | 0.00 | 0.00 | 90 | |
| 20260507191148 | 18 | 33 | 6.4 | 9.7 | 0.00 | 0.00 | 0.00 | 90 | |
| 20260507190645 | 18 | 93 | 1.6 | 4.8 | 0.00 | 0.00 | 0.00 | 91 | |
| 20260507190144 | 18 | 111 | 1.6 | 1.6 | 0.00 | 0.00 | 0.00 | 91 | |
| 20260507185642 | 18 | 99 | 1.6 | 1.6 | 0.00 | 0.00 | 0.00 | 91 | |
| 20260507185138 | 18 | 49 | 1.6 | 3.2 | 0.00 | 0.00 | 0.00 | 91 | |
| 20260507184636 | 18 | 106 | 0.0 | 1.6 | 0.00 | 0.00 | 0.00 | 91 | |
| 20260507184134 | 17 | 114 | 0.0 | 0.0 | 0.00 | 0.00 | 0.00 | 91 | |
| 20260507183630 | 17 | 71 | 0.0 | 1.6 | 0.00 | 0.00 | 0.00 | 91 | |
| 20260507183127 | 17 | 54 | 1.6 | 3.2 | 0.00 | 0.00 | 0.00 | 91 | |
| 20260507182623 | 17 | 62 | 3.2 | 3.2 | 0.00 | 0.00 | 0.00 | 91 | |
| 20260507182119 | 17 | 157 | 1.6 | 3.2 | 0.00 | 0.00 | 0.00 | 91 | |
| 20260507181616 | 17 | 107 | 0.0 | 0.0 | 0.00 | 0.00 | 0.00 | 90 | |
| 20260507181112 | 17 | 109 | 0.0 | 0.0 | 0.00 | 0.00 | 0.00 | 90 | |
| 20260507180609 | 17 | 110 | 0.0 | 0.0 | 0.00 | 0.00 | 0.00 | 90 | |
| 20260507180106 | 17 | 111 | 0.0 | 0.0 | 0.00 | 0.00 | 0.00 | 90 | |
| 20260507175602 | 17 | 109 | 0.0 | 0.0 | 0.00 | 0.00 | 0.00 | 90 | |
| 20260507175059 | 17 | 232 | 0.0 | 1.6 | 0.00 | 0.00 | 0.00 | 90 | |
| 20260507174556 | 17 | 232 | 0.0 | 0.0 | 0.00 | 0.00 | 0.00 | 90 | |
| 20260507174054 | 18 | 233 | 1.6 | 3.2 | 0.00 | 0.00 | 0.00 | 89 | |
| 20260507173551 | 18 | 126 | 0.0 | 0.0 | 0.00 | 0.00 | 0.00 | 89 | |
| 20260507173048 | 18 | 58 | 1.6 | 3.2 | 0.00 | 0.00 | 0.00 | 89 | |
| 20260507172544 | 18 | 116 | 1.6 | 1.6 | 0.00 | 0.00 | 0.00 | 88 | |
| 20260507172041 | 18 | 122 | 0.0 | 0.0 | 0.00 | 0.00 | 0.00 | 88 | |
| 20260507171536 | 18 | 113 | 0.0 | 1.6 | 0.00 | 0.00 | 0.00 | 88 | |
| 20260507171034 | 18 | 107 | 0.0 | 1.6 | 0.00 | 0.00 | 0.00 | 88 | |
| 20260507170530 | 18 | 110 | 0.0 | 1.6 | 0.00 | 0.00 | 0.00 | 88 | |
| 20260507170027 | 18 | 116 | 0.0 | 0.0 | 0.00 | 0.00 | 0.00 | 88 | |
| 20260507165523 | 18 | 97 | 0.0 | 1.6 | 0.00 | 0.00 | 0.00 | 88 | |
| 20260507165020 | 18 | 115 | 0.0 | 1.6 | 0.00 | 0.00 | 0.00 | 88 | |
| 20260507164516 | 18 | 90 | 1.6 | 3.2 | 0.00 | 0.00 | 0.00 | 88 | |
| 20260507164013 | 18 | 39 | 3.2 | 4.8 | 0.00 | 0.00 | 0.00 | 88 | |
| 20260507163510 | 18 | 114 | 0.0 | 3.2 | 0.00 | 0.00 | 0.00 | 88 | |
| 20260507163008 | 18 | 100 | 0.0 | 1.6 | 0.00 | 0.00 | 0.00 | 88 | |
| 20260507162503 | 18 | 74 | 1.6 | 1.6 | 0.00 | 0.00 | 0.00 | 89 | |
| 20260507162000 | 18 | 73 | 1.6 | 4.8 | 0.00 | 0.00 | 0.00 | 89 | |
| 20260507161456 | 18 | 29 | 3.2 | 4.8 | 0.00 | 0.00 | 0.00 | 89 | |
| 20260507160953 | 18 | 61 | 0.0 | 1.6 | 0.00 | 0.00 | 0.00 | 89 | |
| 20260507160449 | 18 | 59 | 1.6 | 3.2 | 0.00 | 0.00 | 0.00 | 89 | |
| 20260507155945 | 18 | 44 | 3.2 | 3.2 | 0.00 | 0.00 | 0.00 | 88 | |
| 20260507155441 | 18 | 118 | 0.0 | 0.0 | 0.00 | 0.00 | 0.00 | 87 | |
| 20260507154938 | 18 | 102 | 0.0 | 0.0 | 0.00 | 0.00 | 0.00 | 87 | |
| 20260507154435 | 18 | 68 | 1.6 | 3.2 | 0.00 | 0.00 | 0.00 | 87 | |
| 20260507153932 | 18 | 90 | 3.2 | 3.2 | 0.00 | 0.00 | 0.00 | 87 | |
| 20260507153429 | 18 | 99 | 1.6 | 3.2 | 0.00 | 0.00 | 0.00 | 87 | |
| 20260507152925 | 18 | 87 | 1.6 | 1.6 | 0.00 | 0.00 | 0.00 | 87 | |
| 20260507152421 | 18 | 121 | 0.0 | 1.6 | 0.00 | 0.00 | 0.00 | 88 | |
| 20260507151917 | 18 | 108 | 0.0 | 0.0 | 0.00 | 0.00 | 0.00 | 87 | |
| 20260507151414 | 18 | 98 | 1.6 | 1.6 | 0.00 | 0.00 | 0.00 | 87 | |
| 20260507150911 | 18 | 98 | 1.6 | 1.6 | 0.00 | 0.00 | 0.00 | 87 | |
| 20260507150408 | 18 | 122 | 0.0 | 1.6 | 0.00 | 0.00 | 0.00 | 86 | |
| 20260507145904 | 18 | 108 | 0.0 | 1.6 | 0.00 | 0.00 | 0.00 | 86 | |
| 20260507145400 | 18 | 117 | 0.0 | 3.2 | 0.00 | 0.00 | 0.00 | 86 | |
| 20260507144857 | 18 | 51 | 3.2 | 3.2 | 0.00 | 0.00 | 0.00 | 86 | |
| 20260507144354 | 18 | 102 | 0.0 | 1.6 | 0.00 | 0.00 | 0.00 | 86 | |
| 20260507143851 | 18 | 111 | 0.0 | 1.6 | 0.00 | 0.00 | 0.00 | 85 | |
| 20260507143348 | 18 | 95 | 0.0 | 1.6 | 0.00 | 0.00 | 0.00 | 85 | |
| 20260507142845 | 18 | 114 | 0.0 | 1.6 | 0.00 | 0.00 | 0.00 | 84 | |
| 20260507142341 | 19 | 115 | 1.6 | 1.6 | 0.00 | 0.00 | 0.00 | 83 | |
| 20260507141838 | 19 | 24 | 1.6 | 4.8 | 0.00 | 0.00 | 0.00 | 83 | |
| 20260507141334 | 19 | 91 | 1.6 | 3.2 | 0.00 | 0.00 | 0.00 | 82 | |
| 20260507140831 | 19 | 112 | 1.6 | 1.6 | 0.00 | 0.00 | 0.00 | 81 | |
| 20260507140328 | 19 | 127 | 0.0 | 1.6 | 0.00 | 0.00 | 0.00 | 81 | |
| 20260507135826 | 19 | 2 | 1.6 | 3.2 | 0.00 | 0.00 | 0.00 | 80 | |
| 20260507135322 | 20 | 133 | 1.6 | 4.8 | 0.00 | 0.00 | 0.00 | 80 | |
| 20260507134820 | 19 | 156 | 1.6 | 4.8 | 0.00 | 0.00 | 0.00 | 80 | |
| 20260507134315 | 20 | 305 | 3.2 | 4.8 | 0.00 | 0.00 | 0.00 | 80 | |
| 20260507133811 | 20 | 120 | 1.6 | 6.4 | 0.00 | 0.00 | 0.00 | 80 | |
| 20260507133307 | 20 | 206 | 3.2 | 6.4 | 0.00 | 0.00 | 0.00 | 80 | |
| 20260507132806 | 20 | 298 | 3.2 | 3.2 | 0.00 | 0.00 | 0.00 | 79 | |
| 20260507132306 | 20 | 133 | 1.6 | 3.2 | 0.00 | 0.00 | 0.00 | 79 | |
| 20260507131759 | 20 | 242 | 4.8 | 11.3 | 0.00 | 0.00 | 0.00 | 79 | |
| 20260507131256 | 20 | 178 | 3.2 | 11.3 | 0.00 | 0.00 | 0.00 | 79 | |
| 20260507130752 | 20 | 163 | 3.2 | 4.8 | 0.00 | 0.00 | 0.00 | 80 | |
| 20260507130250 | 20 | 348 | 4.8 | 6.4 | 0.00 | 0.00 | 0.00 | 80 | |
| 20260507125749 | 20 | 120 | 0.0 | 4.8 | 0.00 | 0.00 | 0.00 | 80 | |
| 20260507125246 | 20 | 187 | 3.2 | 3.2 | 0.00 | 0.00 | 0.00 | 80 | |
| 20260507124743 | 20 | 123 | 0.0 | 0.0 | 0.00 | 0.00 | 0.00 | 80 | |
| 20260507124239 | 20 | 141 | 1.6 | 3.2 | 0.00 | 0.00 | 0.00 | 80 | |
| 20260507123738 | 20 | 205 | 0.0 | 1.6 | 0.00 | 0.00 | 0.00 | 80 | |
| 20260507123235 | 20 | 161 | 1.6 | 1.6 | 0.00 | 0.00 | 0.00 | 81 | |
| 20260507122730 | 20 | 120 | 0.0 | 1.6 | 0.00 | 0.00 | 0.00 | 80 | |
| 20260507122226 | 20 | 100 | 1.6 | 1.6 | 0.00 | 0.00 | 0.00 | 80 | |
| 20260507121722 | 20 | 113 | 0.0 | 1.6 | 0.00 | 0.00 | 0.00 | 80 | |
| 20260507121218 | 20 | 112 | 0.0 | 1.6 | 0.00 | 0.00 | 0.00 | 79 | |
| 20260507120715 | 20 | 115 | 0.0 | 3.2 | 0.00 | 0.00 | 0.00 | 79 | |
| 20260507120212 | 20 | 42 | 3.2 | 4.8 | 0.00 | 0.00 | 0.00 | 79 | |
| 20260507115708 | 20 | 196 | 4.8 | 9.7 | 0.00 | 0.00 | 0.00 | 79 | |
| 20260507115204 | 20 | 100 | 3.2 | 4.8 | 0.00 | 0.00 | 0.00 | 80 | |
| 20260507114659 | 20 | 290 | 3.2 | 6.4 | 0.00 | 0.00 | 0.00 | 80 | |
| 20260507114157 | 20 | 359 | 3.2 | 4.8 | 0.00 | 0.00 | 0.00 | 80 | |
| 20260507113654 | 20 | 292 | 4.8 | 6.4 | 0.00 | 0.00 | 0.00 | 80 | |
| 20260507113151 | 20 | 68 | 3.2 | 4.8 | 0.00 | 0.00 | 0.00 | 79 | |
| 20260507112649 | 20 | 358 | 4.8 | 6.4 | 0.00 | 0.00 | 0.00 | 79 | |
| 20260507112145 | 20 | 234 | 3.2 | 4.8 | 0.00 | 0.00 | 0.00 | 79 | |
| 20260507111643 | 20 | 185 | 1.6 | 3.2 | 0.00 | 0.00 | 0.00 | 79 | |
| 20260507111139 | 20 | 140 | 1.6 | 3.2 | 0.00 | 0.00 | 0.00 | 78 | |
| 20260507110635 | 20 | 138 | 1.6 | 3.2 | 0.00 | 0.00 | 0.00 | 78 | |
| 20260507110132 | 20 | 244 | 4.8 | 6.4 | 0.00 | 0.00 | 0.00 | 77 |